createdAt,value
2018-12-18T00:01:19.737Z,100.00
2018-12-18T00:03:49.900Z,100.00
2018-12-18T00:06:19.788Z,100.00
2018-12-18T00:08:49.594Z,100.00
2018-12-18T00:11:19.406Z,100.00
2018-12-18T00:13:49.232Z,100.00
2018-12-18T00:16:19.344Z,100.00
2018-12-18T00:18:49.083Z,100.00
2018-12-18T00:21:18.904Z,100.00
2018-12-18T00:23:49.420Z,100.00
2018-12-18T00:26:19.356Z,100.00
2018-12-18T00:28:49.546Z,100.00
2018-12-18T00:31:19.904Z,100.00
2018-12-18T00:33:49.661Z,100.00
2018-12-18T00:36:19.452Z,100.00
2018-12-18T00:38:49.156Z,100.00
2018-12-18T00:41:18.907Z,100.00
2018-12-18T00:43:48.716Z,100.00
2018-12-18T00:46:18.558Z,100.00
2018-12-18T00:48:48.534Z,100.00
2018-12-18T00:51:18.332Z,100.00
2018-12-18T00:53:48.524Z,100.00
2018-12-18T00:56:19.034Z,100.00
2018-12-18T01:02:24.544Z,100.00
2018-12-18T01:04:54.806Z,100.00
2018-12-18T01:07:25.649Z,100.00
2018-12-18T01:09:55.445Z,100.00
2018-12-18T01:12:25.321Z,100.00
2018-12-18T01:14:55.229Z,100.00
2018-12-18T01:17:25.010Z,100.00
2018-12-18T01:19:54.905Z,100.00
2018-12-18T01:22:24.673Z,100.00
2018-12-18T01:24:54.521Z,100.00
2018-12-18T01:27:24.267Z,100.00
2018-12-18T01:29:54.023Z,100.00
2018-12-18T01:32:24.179Z,100.00
2018-12-18T01:34:54.262Z,100.00
2018-12-18T01:37:24.137Z,100.00
2018-12-18T01:39:54.429Z,100.00
2018-12-18T01:42:24.705Z,100.00
2018-12-18T01:44:55.164Z,100.00
2018-12-18T01:47:24.994Z,100.00
2018-12-18T01:49:55.046Z,100.00
2018-12-18T01:52:24.843Z,100.00
2018-12-18T01:54:54.764Z,98.93
2018-12-18T01:57:24.983Z,99.44
2018-12-18T01:59:54.736Z,99.41
2018-12-18T02:02:24.543Z,99.60
2018-12-18T02:04:54.652Z,100.00
2018-12-18T02:07:24.444Z,99.65
2018-12-18T02:09:54.734Z,99.50
2018-12-18T02:12:24.491Z,99.92
2018-12-18T02:18:30.294Z,99.80
2018-12-18T02:21:00.062Z,99.56
2018-12-18T02:23:29.918Z,99.13
2018-12-18T02:25:59.652Z,100.00
2018-12-18T02:28:29.510Z,100.00
2018-12-18T02:30:59.279Z,100.00
2018-12-18T02:33:29.052Z,99.56
2018-12-18T02:35:59.078Z,98.70
2018-12-18T02:38:28.820Z,98.08
2018-12-18T02:40:58.589Z,98.61
2018-12-18T02:43:28.375Z,99.15
2018-12-18T02:45:58.156Z,98.91
2018-12-18T02:48:28.749Z,99.12
2018-12-18T02:50:58.553Z,98.87
2018-12-18T02:53:28.345Z,98.78
2018-12-18T02:55:58.143Z,98.74
2018-12-18T02:58:28.159Z,97.73
2018-12-18T03:00:57.942Z,97.45
2018-12-18T03:03:28.024Z,97.39
2018-12-18T03:05:57.813Z,96.53
2018-12-18T03:08:27.601Z,96.02
2018-12-18T03:10:57.390Z,95.95
2018-12-18T03:13:27.367Z,95.16
2018-12-18T03:15:57.151Z,95.87
2018-12-18T03:18:26.965Z,98.11
2018-12-18T03:20:56.783Z,100.00
2018-12-18T03:23:26.548Z,100.00
2018-12-18T03:25:56.427Z,100.00
2018-12-18T03:28:26.229Z,100.00
2018-12-18T03:30:57.505Z,100.00
2018-12-18T03:33:28.177Z,100.00
2018-12-18T03:35:57.996Z,100.00
2018-12-18T03:38:27.810Z,100.00
2018-12-18T03:40:58.396Z,100.00
2018-12-18T03:43:28.325Z,100.00
2018-12-18T03:45:58.371Z,100.00
2018-12-18T03:48:28.250Z,100.00
2018-12-18T03:50:58.068Z,100.00
2018-12-18T03:53:28.227Z,100.00
2018-12-18T03:55:58.536Z,100.00
2018-12-18T03:58:28.355Z,100.00
2018-12-18T04:00:58.446Z,100.00
2018-12-18T04:03:28.342Z,100.00
2018-12-18T04:05:58.668Z,100.00
2018-12-18T04:08:29.761Z,100.00
2018-12-18T04:10:59.971Z,100.00
2018-12-18T04:13:30.017Z,100.00
2018-12-18T04:16:00.322Z,100.00
2018-12-18T04:18:30.697Z,100.00
2018-12-18T04:21:00.731Z,100.00
2018-12-18T04:23:30.580Z,100.00
2018-12-18T04:26:00.422Z,100.00
2018-12-18T04:28:30.242Z,100.00
2018-12-18T04:31:00.608Z,100.00
2018-12-18T04:33:31.422Z,100.00
2018-12-18T04:36:01.212Z,100.00
2018-12-18T04:38:31.128Z,100.00
2018-12-18T04:41:02.064Z,100.00
2018-12-18T04:43:31.873Z,100.00
2018-12-18T04:46:01.858Z,100.00
2018-12-18T04:48:32.087Z,100.00
2018-12-18T04:51:02.136Z,100.00
2018-12-18T04:53:32.024Z,100.00
2018-12-18T04:56:01.870Z,100.00
2018-12-18T04:58:32.412Z,100.00
2018-12-18T05:01:02.241Z,100.00
2018-12-18T05:03:32.231Z,100.00
2018-12-18T05:06:02.801Z,100.00
2018-12-18T05:08:32.949Z,100.00
2018-12-18T05:11:03.052Z,100.00
2018-12-18T05:13:33.537Z,100.00
2018-12-18T05:16:03.416Z,100.00
2018-12-18T05:18:33.223Z,100.00
2018-12-18T05:21:03.433Z,100.00
2018-12-18T05:23:33.268Z,100.00
2018-12-18T05:26:03.164Z,100.00
2018-12-18T05:28:33.388Z,100.00
2018-12-18T05:31:03.304Z,100.00
2018-12-18T05:33:33.362Z,100.00
2018-12-18T05:36:04.021Z,100.00
2018-12-18T05:38:34.149Z,100.00
2018-12-18T05:41:03.923Z,100.00
2018-12-18T05:43:33.723Z,100.00
2018-12-18T05:46:03.483Z,100.00
2018-12-18T05:48:34.249Z,100.00
2018-12-18T05:51:04.257Z,100.00
2018-12-18T05:53:34.203Z,100.00
2018-12-18T05:56:04.299Z,100.00
2018-12-18T05:58:34.159Z,100.00
2018-12-18T06:01:03.957Z,100.00
2018-12-18T06:03:33.878Z,100.00
2018-12-18T06:06:04.920Z,100.00
2018-12-18T06:08:34.930Z,100.00
2018-12-18T06:11:04.873Z,100.00
2018-12-18T06:13:34.647Z,100.00
2018-12-18T06:16:04.775Z,100.00
2018-12-18T06:18:34.568Z,100.00
2018-12-18T06:21:04.462Z,100.00
2018-12-18T06:23:34.495Z,100.00
2018-12-18T06:26:04.374Z,100.00
2018-12-18T06:28:34.283Z,100.00
2018-12-18T06:31:04.706Z,100.00
2018-12-18T06:33:34.560Z,100.00
2018-12-18T06:36:04.486Z,100.00
2018-12-18T06:38:34.264Z,100.00
2018-12-18T06:41:04.060Z,100.00
2018-12-18T06:43:34.110Z,100.00
2018-12-18T06:46:04.012Z,100.00
2018-12-18T06:48:33.908Z,100.00
2018-12-18T06:51:03.626Z,100.00
2018-12-18T06:53:34.130Z,100.00
2018-12-18T06:56:03.980Z,100.00
2018-12-18T06:58:33.774Z,100.00
2018-12-18T07:01:03.802Z,100.00
2018-12-18T07:03:33.680Z,100.00
2018-12-18T07:06:04.520Z,100.00
2018-12-18T07:08:34.304Z,100.00
2018-12-18T07:11:04.482Z,100.00
2018-12-18T07:13:34.259Z,100.00
2018-12-18T07:16:04.080Z,100.00
2018-12-18T07:18:33.894Z,100.00
2018-12-18T07:21:04.002Z,100.00
2018-12-18T07:23:34.124Z,100.00
2018-12-18T07:26:04.169Z,100.00
2018-12-18T07:28:33.923Z,100.00
2018-12-18T07:31:03.691Z,100.00
2018-12-18T07:33:33.941Z,100.00
2018-12-18T07:36:03.815Z,100.00
2018-12-18T07:38:33.865Z,100.00
2018-12-18T07:41:03.655Z,100.00
2018-12-18T07:43:34.439Z,100.00
2018-12-18T07:46:04.327Z,100.00
2018-12-18T07:48:34.096Z,100.00
2018-12-18T07:51:03.979Z,100.00
2018-12-18T07:53:35.358Z,100.00
2018-12-18T07:56:05.463Z,100.00
2018-12-18T07:58:35.251Z,100.00
2018-12-18T08:01:05.025Z,100.00
2018-12-18T08:03:35.153Z,100.00
2018-12-18T08:06:05.380Z,100.00
2018-12-18T08:08:35.123Z,100.00
2018-12-18T08:11:05.165Z,100.00
2018-12-18T08:13:34.895Z,100.00
2018-12-18T08:16:04.655Z,100.00
2018-12-18T08:18:34.434Z,100.00
2018-12-18T08:21:04.661Z,100.00
2018-12-18T08:23:34.377Z,100.00
2018-12-18T08:26:04.119Z,100.00
2018-12-18T08:28:33.861Z,100.00
2018-12-18T08:31:03.671Z,100.00
2018-12-18T08:33:33.442Z,100.00
2018-12-18T08:36:03.201Z,100.00
2018-12-18T08:38:32.923Z,100.00
2018-12-18T08:41:02.647Z,100.00
2018-12-18T08:43:32.383Z,100.00
2018-12-18T08:46:02.378Z,100.00
2018-12-18T08:48:32.111Z,100.00
2018-12-18T08:51:01.892Z,100.00
2018-12-18T08:53:31.657Z,100.00
2018-12-18T08:56:01.423Z,100.00
2018-12-18T08:58:31.151Z,100.00
2018-12-18T09:01:00.929Z,100.00
2018-12-18T09:03:30.955Z,100.00
2018-12-18T09:06:00.703Z,100.00
2018-12-18T09:08:30.447Z,100.00
2018-12-18T09:11:00.448Z,100.00
2018-12-18T09:13:30.187Z,100.00
2018-12-18T09:15:59.925Z,100.00
2018-12-18T09:18:29.635Z,100.00
2018-12-18T09:20:59.391Z,100.00
2018-12-18T09:23:29.104Z,100.00
2018-12-18T09:25:58.853Z,100.00
2018-12-18T09:28:28.539Z,100.00
2018-12-18T09:30:58.259Z,100.00
2018-12-18T09:33:28.005Z,100.00
2018-12-18T09:35:57.791Z,100.00
2018-12-18T09:38:32.758Z,100.00
2018-12-18T09:41:07.622Z,100.00
2018-12-18T09:44:13.879Z,100.00
2018-12-18T09:46:43.623Z,100.00
2018-12-18T09:49:13.416Z,100.00
2018-12-18T09:51:43.265Z,100.00
2018-12-18T09:54:13.314Z,100.00
2018-12-18T09:56:48.069Z,100.00
2018-12-18T09:59:18.349Z,100.00
2018-12-18T10:01:48.597Z,100.00
2018-12-18T10:04:18.483Z,100.00
2018-12-18T10:06:48.241Z,100.00
2018-12-18T10:09:18.009Z,100.00
2018-12-18T10:11:47.801Z,100.00
2018-12-18T10:14:17.989Z,100.00
2018-12-18T10:16:47.779Z,100.00
2018-12-18T10:19:17.578Z,100.00
2018-12-18T10:21:47.417Z,100.00
2018-12-18T10:24:17.624Z,100.00
2018-12-18T10:26:47.349Z,100.00
2018-12-18T10:29:17.096Z,100.00
2018-12-18T10:31:46.830Z,100.00
2018-12-18T10:34:17.320Z,100.00
2018-12-18T10:36:47.059Z,100.00
2018-12-18T10:39:16.816Z,100.00
2018-12-18T10:41:46.515Z,100.00
2018-12-18T10:44:16.235Z,100.00
2018-12-18T10:46:46.147Z,100.00
2018-12-18T10:49:15.892Z,100.00
2018-12-18T10:51:45.646Z,100.00
2018-12-18T10:54:15.841Z,100.00
2018-12-18T10:56:45.595Z,100.00
2018-12-18T10:59:15.439Z,100.00
2018-12-18T11:01:47.866Z,100.00
2018-12-18T11:04:17.635Z,100.00
2018-12-18T11:06:47.405Z,100.00
2018-12-18T11:09:18.051Z,100.00
2018-12-18T11:11:47.784Z,100.00
2018-12-18T11:14:17.492Z,100.00
2018-12-18T11:16:47.504Z,100.00
2018-12-18T11:19:17.498Z,100.00
2018-12-18T11:21:47.246Z,100.00
2018-12-18T11:24:16.942Z,100.00
2018-12-18T11:26:46.658Z,100.00
2018-12-18T11:29:16.398Z,100.00
2018-12-18T11:31:46.131Z,100.00
2018-12-18T11:34:16.042Z,100.00
2018-12-18T11:36:45.770Z,100.00
2018-12-18T11:39:15.486Z,100.00
2018-12-18T11:41:45.225Z,100.00
2018-12-18T11:44:15.038Z,100.00
2018-12-18T11:46:44.934Z,100.00
2018-12-18T11:49:14.790Z,100.00
2018-12-18T11:51:45.367Z,100.00
2018-12-18T11:54:15.190Z,100.00
2018-12-18T11:56:44.986Z,100.00
2018-12-18T11:59:15.427Z,100.00
2018-12-18T12:01:45.499Z,100.00
2018-12-18T12:04:15.289Z,100.00
2018-12-18T12:06:45.064Z,100.00
2018-12-18T12:09:15.382Z,100.00
2018-12-18T12:11:45.178Z,100.00
2018-12-18T12:14:15.238Z,100.00
2018-12-18T12:16:44.977Z,100.00
2018-12-18T12:19:14.764Z,100.00
2018-12-18T12:21:44.505Z,100.00
2018-12-18T12:24:14.376Z,100.00
2018-12-18T12:26:48.938Z,100.00
2018-12-18T12:29:18.760Z,100.00
2018-12-18T12:31:48.578Z,100.00
2018-12-18T12:34:19.318Z,100.00
2018-12-18T12:36:49.124Z,100.00
2018-12-18T12:39:18.886Z,100.00
2018-12-18T12:41:49.462Z,100.00
2018-12-18T12:44:19.189Z,100.00
2018-12-18T12:46:49.265Z,100.00
2018-12-18T12:49:19.110Z,100.00
2018-12-18T12:51:48.884Z,100.00
2018-12-18T12:54:18.962Z,100.00
2018-12-18T12:56:48.778Z,100.00
2018-12-18T12:59:18.552Z,100.00
2018-12-18T13:01:48.525Z,100.00
2018-12-18T13:04:18.320Z,100.00
2018-12-18T13:06:48.129Z,100.00
2018-12-18T13:09:17.995Z,100.00
2018-12-18T13:11:47.900Z,100.00
2018-12-18T13:14:17.747Z,100.00
2018-12-18T13:16:47.596Z,100.00
2018-12-18T13:19:17.572Z,100.00
2018-12-18T13:21:47.564Z,100.00
2018-12-18T13:24:17.667Z,100.00
2018-12-18T13:26:47.593Z,100.00
2018-12-18T13:29:17.337Z,100.00
2018-12-18T13:31:47.092Z,100.00
2018-12-18T13:34:16.869Z,100.00
2018-12-18T13:36:46.638Z,100.00
2018-12-18T13:39:16.719Z,100.00
2018-12-18T13:41:46.465Z,100.00
2018-12-18T13:44:16.247Z,100.00
2018-12-18T13:46:46.034Z,100.00
2018-12-18T13:49:15.851Z,100.00
2018-12-18T13:51:45.647Z,100.00
2018-12-18T13:54:15.632Z,100.00
2018-12-18T13:56:45.388Z,100.00
2018-12-18T13:59:15.131Z,100.00
2018-12-18T14:01:44.943Z,100.00
2018-12-18T14:04:14.725Z,100.00
2018-12-18T14:06:49.705Z,100.00
2018-12-18T14:09:16.223Z,100.00
2018-12-18T14:11:45.952Z,100.00
2018-12-18T14:14:15.689Z,100.00
2018-12-18T14:16:45.416Z,100.00
2018-12-18T14:19:16.012Z,100.00
2018-12-18T14:21:45.761Z,100.00
2018-12-18T14:24:15.681Z,100.00
2018-12-18T14:26:45.759Z,100.00
2018-12-18T14:29:16.119Z,100.00
2018-12-18T14:31:45.875Z,100.00
2018-12-18T14:34:15.962Z,100.00
2018-12-18T14:36:45.726Z,100.00
2018-12-18T14:39:15.705Z,100.00
2018-12-18T14:41:45.427Z,100.00
2018-12-18T14:44:15.314Z,100.00
2018-12-18T14:46:45.048Z,100.00
2018-12-18T14:49:14.818Z,100.00
2018-12-18T14:51:44.541Z,100.00
2018-12-18T14:54:15.030Z,100.00
2018-12-18T14:56:44.809Z,100.00
2018-12-18T14:59:14.558Z,100.00
2018-12-18T15:01:46.704Z,100.00
2018-12-18T15:04:16.427Z,100.00
2018-12-18T15:06:46.156Z,100.00
2018-12-18T15:09:15.927Z,100.00
2018-12-18T15:11:45.706Z,100.00
2018-12-18T15:14:15.479Z,100.00
2018-12-18T15:16:45.203Z,100.00
2018-12-18T15:19:14.945Z,100.00
2018-12-18T15:21:44.642Z,100.00
2018-12-18T15:24:14.515Z,100.00
2018-12-18T15:26:44.353Z,100.00
2018-12-18T15:29:14.090Z,100.00
2018-12-18T15:31:43.851Z,100.00
2018-12-18T15:34:13.629Z,100.00
2018-12-18T15:36:43.414Z,100.00
2018-12-18T15:39:13.615Z,100.00
2018-12-18T15:41:43.431Z,100.00
2018-12-18T15:44:13.193Z,100.00
2018-12-18T15:46:43.003Z,100.00
2018-12-18T15:49:12.798Z,100.00
2018-12-18T15:51:42.681Z,100.00
2018-12-18T15:54:12.448Z,100.00
2018-12-18T15:56:42.223Z,100.00
2018-12-18T15:59:12.037Z,100.00
2018-12-18T16:01:41.793Z,100.00
2018-12-18T16:04:11.551Z,100.00
2018-12-18T16:06:41.271Z,100.00
2018-12-18T16:09:11.034Z,100.00
2018-12-18T16:11:40.749Z,100.00
2018-12-18T16:14:10.543Z,100.00
2018-12-18T16:16:40.593Z,100.00
2018-12-18T16:19:10.788Z,100.00
2018-12-18T16:21:41.483Z,100.00
2018-12-18T16:24:11.322Z,100.00
2018-12-18T16:26:41.092Z,100.00
2018-12-18T16:29:10.971Z,100.00
2018-12-18T16:31:40.743Z,100.00
2018-12-18T16:34:10.546Z,100.00
2018-12-18T16:36:40.330Z,100.00
2018-12-18T16:39:10.110Z,100.00
2018-12-18T16:41:39.919Z,100.00
2018-12-18T16:44:09.724Z,100.00
2018-12-18T16:46:39.886Z,100.00
2018-12-18T16:49:09.660Z,100.00
2018-12-18T16:51:39.674Z,100.00
2018-12-18T16:54:10.116Z,100.00
2018-12-18T16:56:40.446Z,100.00
2018-12-18T16:59:10.220Z,100.00
2018-12-18T17:01:40.035Z,100.00
2018-12-18T17:04:10.129Z,100.00
2018-12-18T17:06:40.294Z,100.00
2018-12-18T17:09:10.482Z,100.00
2018-12-18T17:11:40.253Z,100.00
2018-12-18T17:14:10.326Z,100.00
2018-12-18T17:16:40.325Z,100.00
2018-12-18T17:19:10.191Z,100.00
2018-12-18T17:21:40.052Z,100.00
2018-12-18T17:24:09.817Z,100.00
2018-12-18T17:26:39.657Z,100.00
2018-12-18T17:29:09.445Z,100.00
2018-12-18T17:31:39.219Z,100.00
2018-12-18T17:34:08.999Z,100.00
2018-12-18T17:36:38.799Z,100.00
2018-12-18T17:39:09.677Z,100.00
2018-12-18T17:41:39.459Z,100.00
2018-12-18T17:44:09.282Z,100.00
2018-12-18T17:46:39.051Z,100.00
2018-12-18T17:49:08.835Z,100.00
2018-12-18T17:51:38.891Z,100.00
2018-12-18T17:54:08.643Z,100.00
2018-12-18T17:56:38.374Z,100.00
2018-12-18T17:59:08.191Z,100.00
2018-12-18T18:01:37.963Z,100.00
2018-12-18T18:04:08.152Z,100.00
2018-12-18T18:06:38.261Z,100.00
2018-12-18T18:09:10.433Z,100.00
2018-12-18T18:11:40.180Z,100.00
2018-12-18T18:14:09.970Z,100.00
2018-12-18T18:16:39.797Z,100.00
2018-12-18T18:19:09.877Z,100.00
2018-12-18T18:21:39.682Z,100.00
2018-12-18T18:24:09.483Z,100.00
2018-12-18T18:26:39.233Z,100.00
2018-12-18T18:29:09.034Z,100.00
2018-12-18T18:31:38.841Z,100.00
2018-12-18T18:34:08.671Z,100.00
2018-12-18T18:36:38.635Z,100.00
2018-12-18T18:39:09.609Z,100.00
2018-12-18T18:41:39.411Z,100.00
2018-12-18T18:44:09.235Z,100.00
2018-12-18T18:46:39.433Z,100.00
2018-12-18T18:49:09.700Z,100.00
2018-12-18T18:51:39.516Z,100.00
2018-12-18T18:54:09.345Z,100.00
2018-12-18T18:56:39.141Z,100.00
2018-12-18T18:59:08.996Z,100.00
2018-12-18T19:01:39.255Z,100.00
2018-12-18T19:04:09.458Z,100.00
2018-12-18T19:06:39.764Z,100.00
2018-12-18T19:09:10.717Z,100.00
2018-12-18T19:11:41.437Z,100.00
2018-12-18T19:14:11.266Z,100.00
2018-12-18T19:16:41.114Z,100.00
2018-12-18T19:19:10.899Z,100.00
2018-12-18T19:21:41.146Z,100.00
2018-12-18T19:24:10.950Z,100.00
2018-12-18T19:26:40.790Z,100.00
2018-12-18T19:29:10.967Z,100.00
2018-12-18T19:31:40.860Z,100.00
2018-12-18T19:34:10.795Z,100.00
2018-12-18T19:36:41.571Z,100.00
2018-12-18T19:39:11.339Z,100.00
2018-12-18T19:41:41.459Z,100.00
2018-12-18T19:44:11.666Z,100.00
2018-12-18T19:46:41.462Z,100.00
2018-12-18T19:49:11.283Z,100.00
2018-12-18T19:51:41.765Z,100.00
2018-12-18T19:54:11.833Z,100.00
2018-12-18T19:56:41.646Z,100.00
2018-12-18T19:59:11.413Z,100.00
2018-12-18T20:01:41.218Z,100.00
2018-12-18T20:04:11.033Z,100.00
2018-12-18T20:06:40.782Z,100.00
2018-12-18T20:09:11.609Z,100.00
2018-12-18T20:11:42.113Z,100.00
2018-12-18T20:14:11.939Z,100.00
2018-12-18T20:16:41.778Z,100.00
2018-12-18T20:19:11.593Z,100.00
2018-12-18T20:21:41.378Z,100.00
2018-12-18T20:24:11.948Z,100.00
2018-12-18T20:26:41.882Z,100.00
2018-12-18T20:29:12.018Z,100.00
2018-12-18T20:31:41.810Z,100.00
2018-12-18T20:34:11.631Z,100.00
2018-12-18T20:36:41.738Z,100.00
2018-12-18T20:39:12.218Z,100.00
2018-12-18T20:41:41.988Z,100.00
2018-12-18T20:44:11.796Z,100.00
2018-12-18T20:46:41.928Z,100.00
2018-12-18T20:49:11.737Z,100.00
2018-12-18T20:51:41.534Z,100.00
2018-12-18T20:54:11.318Z,100.00
2018-12-18T20:56:41.094Z,100.00
2018-12-18T20:59:11.194Z,100.00
2018-12-18T21:01:41.016Z,100.00
2018-12-18T21:04:10.751Z,100.00
2018-12-18T21:06:40.567Z,100.00
2018-12-18T21:09:11.334Z,100.00
2018-12-18T21:11:41.063Z,100.00
2018-12-18T21:14:10.844Z,100.00
2018-12-18T21:16:40.666Z,100.00
2018-12-18T21:19:10.450Z,100.00
2018-12-18T21:21:40.317Z,100.00
2018-12-18T21:24:12.210Z,100.00
2018-12-18T21:26:42.046Z,100.00
2018-12-18T21:29:11.830Z,100.00
2018-12-18T21:31:42.096Z,100.00
2018-12-18T21:34:12.213Z,100.00
2018-12-18T21:36:41.943Z,100.00
2018-12-18T21:39:11.955Z,100.00
2018-12-18T21:41:41.732Z,100.00
2018-12-18T21:44:11.646Z,100.00
2018-12-18T21:46:41.615Z,100.00
2018-12-18T21:49:11.458Z,100.00
2018-12-18T21:51:41.574Z,100.00
2018-12-18T21:54:11.386Z,100.00
2018-12-18T21:56:41.133Z,100.00
2018-12-18T21:59:11.306Z,100.00
2018-12-18T22:01:41.580Z,100.00
2018-12-18T22:04:11.356Z,100.00
2018-12-18T22:06:41.376Z,100.00
2018-12-18T22:09:11.115Z,100.00
2018-12-18T22:11:40.905Z,100.00
2018-12-18T22:14:10.659Z,100.00
2018-12-18T22:16:40.634Z,100.00
2018-12-18T22:19:10.428Z,100.00
2018-12-18T22:21:40.201Z,100.00
2018-12-18T22:24:09.939Z,100.00
2018-12-18T22:26:40.063Z,100.00
2018-12-18T22:29:10.170Z,100.00
2018-12-18T22:31:39.936Z,100.00
2018-12-18T22:34:09.737Z,100.00
2018-12-18T22:36:39.499Z,100.00
2018-12-18T22:39:09.660Z,100.00
2018-12-18T22:41:39.522Z,100.00
2018-12-18T22:44:09.359Z,100.00
2018-12-18T22:46:39.286Z,100.00
2018-12-18T22:49:09.320Z,100.00
2018-12-18T22:51:39.282Z,100.00
2018-12-18T22:54:09.480Z,100.00
2018-12-18T22:56:39.400Z,100.00
2018-12-18T22:59:09.198Z,100.00
2018-12-18T23:01:45.378Z,100.00
2018-12-18T23:04:16.391Z,100.00
2018-12-18T23:06:46.752Z,100.00
2018-12-18T23:09:17.324Z,100.00
2018-12-18T23:11:47.374Z,100.00
2018-12-18T23:14:17.183Z,100.00
2018-12-18T23:16:46.954Z,100.00
2018-12-18T23:19:16.920Z,100.00
2018-12-18T23:21:46.840Z,100.00
2018-12-18T23:24:17.039Z,100.00
2018-12-18T23:26:46.851Z,100.00
2018-12-18T23:29:17.357Z,100.00
2018-12-18T23:31:47.285Z,100.00
2018-12-18T23:34:17.117Z,100.00
2018-12-18T23:36:47.068Z,100.00
2018-12-18T23:39:16.984Z,100.00
2018-12-18T23:41:47.641Z,100.00
2018-12-18T23:44:17.899Z,100.00
2018-12-18T23:46:47.677Z,100.00
2018-12-18T23:49:17.453Z,100.00
2018-12-18T23:51:47.939Z,100.00
2018-12-18T23:54:17.778Z,100.00
2018-12-18T23:56:47.638Z,100.00
2018-12-18T23:59:17.712Z,100.00
